Aviation Digital Data Service (ADDS)

Output produced by METARs form (1148 UTC 30 September 2014)
found at http://aviationweather.gov/adds/metars/
 
KBPT 301123Z 3012/0112 04004KT P6SM SKC 
     TEMPO 3012/3013 5SM BR 
     FM301400 09005KT P6SM SCT250 
     FM301700 13008KT P6SM SCT025 SCT250